sensor_id;sensor_type;location;lat;lon;timestamp;temperature;humidity
9385;DHT22;4732;49.340;10.886;2023-04-24T03:02:34;10.20;99.90
9385;DHT22;4732;49.340;10.886;2023-04-24T03:05:00;10.20;99.90
9385;DHT22;4732;49.340;10.886;2023-04-24T03:07:25;10.20;99.90
9385;DHT22;4732;49.340;10.886;2023-04-24T03:09:51;10.20;99.90
9385;DHT22;4732;49.340;10.886;2023-04-24T03:12:17;10.20;99.90
9385;DHT22;4732;49.340;10.886;2023-04-24T03:14:43;10.30;99.90
9385;DHT22;4732;49.340;10.886;2023-04-24T03:17:09;10.20;99.90
9385;DHT22;4732;49.340;10.886;2023-04-24T03:19:34;10.20;99.90
9385;DHT22;4732;49.340;10.886;2023-04-24T03:22:02;10.20;99.90
9385;DHT22;4732;49.340;10.886;2023-04-24T03:24:28;10.20;99.90
9385;DHT22;4732;49.340;10.886;2023-04-24T03:26:53;10.20;99.90
9385;DHT22;4732;49.340;10.886;2023-04-24T03:29:19;10.20;99.90
9385;DHT22;4732;49.340;10.886;2023-04-24T03:31:44;10.20;99.90
9385;DHT22;4732;49.340;10.886;2023-04-24T03:34:10;10.20;99.90
9385;DHT22;4732;49.340;10.886;2023-04-24T03:36:35;10.20;99.90
9385;DHT22;4732;49.340;10.886;2023-04-24T03:39:01;10.10;99.90
9385;DHT22;4732;49.340;10.886;2023-04-24T03:41:26;10.10;99.90
9385;DHT22;4732;49.340;10.886;2023-04-24T03:43:52;10.00;99.90
9385;DHT22;4732;49.340;10.886;2023-04-24T03:46:17;10.10;99.90
9385;DHT22;4732;49.340;10.886;2023-04-24T03:48:43;10.10;99.90
9385;DHT22;4732;49.340;10.886;2023-04-24T03:51:08;10.10;99.90
9385;DHT22;4732;49.340;10.886;2023-04-24T03:53:34;10.10;99.90
9385;DHT22;4732;49.340;10.886;2023-04-24T03:55:59;10.00;99.90
9385;DHT22;4732;49.340;10.886;2023-04-24T03:58:25;10.10;99.90
9385;DHT22;4732;49.340;10.886;2023-04-24T04:00:50;10.10;99.90
9385;DHT22;4732;49.340;10.886;2023-04-24T04:03:16;10.10;99.90
9385;DHT22;4732;49.340;10.886;2023-04-24T04:05:42;10.00;99.90
9385;DHT22;4732;49.340;10.886;2023-04-24T04:08:07;10.00;99.90
9385;DHT22;4732;49.340;10.886;2023-04-24T04:10:33;10.00;99.90
9385;DHT22;4732;49.340;10.886;2023-04-24T04:12:58;10.10;99.90
9385;DHT22;4732;49.340;10.886;2023-04-24T04:15:23;10.10;99.90
9385;DHT22;4732;49.340;10.886;2023-04-24T04:17:49;10.10;99.90
9385;DHT22;4732;49.340;10.886;2023-04-24T04:20:15;10.10;99.90
9385;DHT22;4732;49.340;10.886;2023-04-24T04:22:40;10.10;99.90
9385;DHT22;4732;49.340;10.886;2023-04-24T04:25:06;10.10;99.90
9385;DHT22;4732;49.340;10.886;2023-04-24T04:27:32;10.10;99.90
9385;DHT22;4732;49.340;10.886;2023-04-24T04:29:58;10.10;99.90
9385;DHT22;4732;49.340;10.886;2023-04-24T04:32:28;10.10;99.90
9385;DHT22;4732;49.340;10.886;2023-04-24T04:34:53;10.00;99.90
9385;DHT22;4732;49.340;10.886;2023-04-24T04:37:19;10.00;99.90
9385;DHT22;4732;49.340;10.886;2023-04-24T04:39:44;10.10;99.90
9385;DHT22;4732;49.340;10.886;2023-04-24T04:42:10;10.10;99.90
9385;DHT22;4732;49.340;10.886;2023-04-24T04:44:35;10.10;99.90
9385;DHT22;4732;49.340;10.886;2023-04-24T04:47:02;10.10;99.90
9385;DHT22;4732;49.340;10.886;2023-04-24T04:49:33;10.10;99.90
9385;DHT22;4732;49.340;10.886;2023-04-24T04:51:59;10.10;99.90
9385;DHT22;4732;49.340;10.886;2023-04-24T04:54:25;10.10;99.90
9385;DHT22;4732;49.340;10.886;2023-04-24T04:56:51;10.10;99.90
9385;DHT22;4732;49.340;10.886;2023-04-24T04:59:16;10.10;99.90
9385;DHT22;4732;49.340;10.886;2023-04-24T05:01:42;10.10;99.90
9385;DHT22;4732;49.340;10.886;2023-04-24T05:04:07;10.10;99.90
9385;DHT22;4732;49.340;10.886;2023-04-24T05:06:33;10.10;99.90
9385;DHT22;4732;49.340;10.886;2023-04-24T05:08:58;10.10;99.90
9385;DHT22;4732;49.340;10.886;2023-04-24T05:11:24;10.10;99.90
9385;DHT22;4732;49.340;10.886;2023-04-24T05:13:50;10.20;99.90
9385;DHT22;4732;49.340;10.886;2023-04-24T05:16:15;10.20;99.90
9385;DHT22;4732;49.340;10.886;2023-04-24T05:18:41;10.20;99.90
9385;DHT22;4732;49.340;10.886;2023-04-24T05:21:06;10.30;99.90
9385;DHT22;4732;49.340;10.886;2023-04-24T05:23:32;10.30;99.90
9385;DHT22;4732;49.340;10.886;2023-04-24T05:25:57;10.40;99.90
9385;DHT22;4732;49.340;10.886;2023-04-24T05:28:23;10.40;99.90
9385;DHT22;4732;49.340;10.886;2023-04-24T05:30:48;10.40;99.90
9385;DHT22;4732;49.340;10.886;2023-04-24T05:33:14;10.50;99.90
9385;DHT22;4732;49.340;10.886;2023-04-24T05:35:40;10.50;99.90
9385;DHT22;4732;49.340;10.886;2023-04-24T05:38:11;10.50;99.90
9385;DHT22;4732;49.340;10.886;2023-04-24T05:40:36;10.50;99.90
9385;DHT22;4732;49.340;10.886;2023-04-24T05:43:02;10.50;99.90
9385;DHT22;4732;49.340;10.886;2023-04-24T05:45:27;10.60;99.90
9385;DHT22;4732;49.340;10.886;2023-04-24T05:47:53;10.70;99.90
9385;DHT22;4732;49.340;10.886;2023-04-24T05:50:19;10.70;99.90
9385;DHT22;4732;49.340;10.886;2023-04-24T05:52:44;10.80;99.90
9385;DHT22;4732;49.340;10.886;2023-04-24T05:55:10;10.70;99.90
9385;DHT22;4732;49.340;10.886;2023-04-24T05:57:35;10.80;99.90
9385;DHT22;4732;49.340;10.886;2023-04-24T06:00:01;10.80;99.90
9385;DHT22;4732;49.340;10.886;2023-04-24T06:02:26;10.90;99.90
9385;DHT22;4732;49.340;10.886;2023-04-24T06:04:52;11.00;99.90
9385;DHT22;4732;49.340;10.886;2023-04-24T06:07:18;10.90;99.90
9385;DHT22;4732;49.340;10.886;2023-04-24T06:09:43;11.00;99.90
9385;DHT22;4732;49.340;10.886;2023-04-24T06:12:09;11.00;99.90
9385;DHT22;4732;49.340;10.886;2023-04-24T06:14:35;11.00;99.90
9385;DHT22;4732;49.340;10.886;2023-04-24T06:17:00;11.00;99.90
9385;DHT22;4732;49.340;10.886;2023-04-24T06:19:26;11.00;99.90
9385;DHT22;4732;49.340;10.886;2023-04-24T06:21:51;10.90;99.90
9385;DHT22;4732;49.340;10.886;2023-04-24T06:24:17;10.90;99.90
9385;DHT22;4732;49.340;10.886;2023-04-24T06:26:42;10.80;99.90
9385;DHT22;4732;49.340;10.886;2023-04-24T06:29:08;10.80;99.90
9385;DHT22;4732;49.340;10.886;2023-04-24T06:31:33;10.70;99.90
9385;DHT22;4732;49.340;10.886;2023-04-24T06:34:03;10.70;99.90
9385;DHT22;4732;49.340;10.886;2023-04-24T06:36:28;10.60;99.90
9385;DHT22;4732;49.340;10.886;2023-04-24T06:38:54;10.70;99.90
9385;DHT22;4732;49.340;10.886;2023-04-24T06:41:20;10.70;99.90
9385;DHT22;4732;49.340;10.886;2023-04-24T06:43:45;10.80;99.90
9385;DHT22;4732;49.340;10.886;2023-04-24T06:46:11;10.80;99.90
9385;DHT22;4732;49.340;10.886;2023-04-24T06:48:37;10.90;99.90
9385;DHT22;4732;49.340;10.886;2023-04-24T06:51:02;11.00;99.90
9385;DHT22;4732;49.340;10.886;2023-04-24T06:53:28;10.90;99.90
9385;DHT22;4732;49.340;10.886;2023-04-24T06:55:54;11.00;99.90
9385;DHT22;4732;49.340;10.886;2023-04-24T06:58:20;10.90;99.90
9385;DHT22;4732;49.340;10.886;2023-04-24T07:00:45;10.90;99.90
9385;DHT22;4732;49.340;10.886;2023-04-24T07:03:11;10.90;99.90
9385;DHT22;4732;49.340;10.886;2023-04-24T07:05:36;10.90;99.90
9385;DHT22;4732;49.340;10.886;2023-04-24T07:08:03;11.10;99.90
9385;DHT22;4732;49.340;10.886;2023-04-24T07:10:29;11.00;99.90
9385;DHT22;4732;49.340;10.886;2023-04-24T07:12:55;11.10;99.90
9385;DHT22;4732;49.340;10.886;2023-04-24T07:15:24;11.00;99.90
9385;DHT22;4732;49.340;10.886;2023-04-24T07:17:50;10.90;99.90
9385;DHT22;4732;49.340;10.886;2023-04-24T07:20:15;10.90;99.90
9385;DHT22;4732;49.340;10.886;2023-04-24T07:22:41;10.70;99.90
9385;DHT22;4732;49.340;10.886;2023-04-24T07:25:07;10.80;99.90
9385;DHT22;4732;49.340;10.886;2023-04-24T07:27:33;10.90;99.90
9385;DHT22;4732;49.340;10.886;2023-04-24T07:29:59;10.90;99.90
9385;DHT22;4732;49.340;10.886;2023-04-24T07:32:24;10.90;99.90
9385;DHT22;4732;49.340;10.886;2023-04-24T07:34:50;11.00;99.90
9385;DHT22;4732;49.340;10.886;2023-04-24T07:37:16;11.20;99.90
9385;DHT22;4732;49.340;10.886;2023-04-24T07:39:41;11.30;99.90
9385;DHT22;4732;49.340;10.886;2023-04-24T07:42:07;11.50;99.90
9385;DHT22;4732;49.340;10.886;2023-04-24T07:44:32;11.60;99.90
9385;DHT22;4732;49.340;10.886;2023-04-24T07:46:58;11.80;99.90
9385;DHT22;4732;49.340;10.886;2023-04-24T07:49:23;11.90;99.90
9385;DHT22;4732;49.340;10.886;2023-04-24T07:51:49;12.10;99.90
9385;DHT22;4732;49.340;10.886;2023-04-24T07:54:15;12.20;99.90
9385;DHT22;4732;49.340;10.886;2023-04-24T07:56:41;12.00;99.90
9385;DHT22;4732;49.340;10.886;2023-04-24T07:59:08;11.80;99.90
9385;DHT22;4732;49.340;10.886;2023-04-24T08:01:35;11.50;99.90
9385;DHT22;4732;49.340;10.886;2023-04-24T08:04:01;11.60;99.90
9385;DHT22;4732;49.340;10.886;2023-04-24T08:06:26;11.70;99.90
9385;DHT22;4732;49.340;10.886;2023-04-24T08:08:56;11.60;99.90
9385;DHT22;4732;49.340;10.886;2023-04-24T08:11:21;11.60;99.90
9385;DHT22;4732;49.340;10.886;2023-04-24T08:13:47;11.60;99.90
9385;DHT22;4732;49.340;10.886;2023-04-24T08:16:12;11.70;99.90
9385;DHT22;4732;49.340;10.886;2023-04-24T08:18:38;11.60;99.90
9385;DHT22;4732;49.340;10.886;2023-04-24T08:21:03;11.50;99.90
9385;DHT22;4732;49.340;10.886;2023-04-24T08:23:29;11.40;99.90
9385;DHT22;4732;49.340;10.886;2023-04-24T08:25:55;11.60;99.90
9385;DHT22;4732;49.340;10.886;2023-04-24T08:28:20;11.50;99.90
9385;DHT22;4732;49.340;10.886;2023-04-24T08:30:46;11.60;99.90
9385;DHT22;4732;49.340;10.886;2023-04-24T08:33:13;11.80;99.90
9385;DHT22;4732;49.340;10.886;2023-04-24T08:35:39;12.00;99.90
9385;DHT22;4732;49.340;10.886;2023-04-24T08:38:04;12.00;99.90
9385;DHT22;4732;49.340;10.886;2023-04-24T08:40:34;12.10;99.90
9385;DHT22;4732;49.340;10.886;2023-04-24T08:43:00;12.10;99.90
9385;DHT22;4732;49.340;10.886;2023-04-24T08:45:26;12.10;99.90
9385;DHT22;4732;49.340;10.886;2023-04-24T08:47:55;12.20;99.90
9385;DHT22;4732;49.340;10.886;2023-04-24T08:50:21;12.30;99.90
9385;DHT22;4732;49.340;10.886;2023-04-24T08:52:49;12.30;99.90
9385;DHT22;4732;49.340;10.886;2023-04-24T08:55:15;12.30;99.90
9385;DHT22;4732;49.340;10.886;2023-04-24T08:57:44;12.40;99.90
9385;DHT22;4732;49.340;10.886;2023-04-24T09:00:10;12.90;99.90
9385;DHT22;4732;49.340;10.886;2023-04-24T09:02:36;13.10;99.90
9385;DHT22;4732;49.340;10.886;2023-04-24T09:05:04;13.20;99.90
9385;DHT22;4732;49.340;10.886;2023-04-24T09:07:32;13.10;99.90
9385;DHT22;4732;49.340;10.886;2023-04-24T09:09:59;13.30;99.90
9385;DHT22;4732;49.340;10.886;2023-04-24T09:12:25;13.60;99.90
9385;DHT22;4732;49.340;10.886;2023-04-24T09:14:50;13.80;99.90
9385;DHT22;4732;49.340;10.886;2023-04-24T09:17:16;13.90;99.90
9385;DHT22;4732;49.340;10.886;2023-04-24T09:19:42;13.60;99.90
9385;DHT22;4732;49.340;10.886;2023-04-24T09:22:08;13.40;99.90
9385;DHT22;4732;49.340;10.886;2023-04-24T09:24:35;13.20;99.90
9385;DHT22;4732;49.340;10.886;2023-04-24T09:27:01;12.80;99.90
9385;DHT22;4732;49.340;10.886;2023-04-24T09:29:27;12.80;99.90
9385;DHT22;4732;49.340;10.886;2023-04-24T09:31:53;12.80;99.90
9385;DHT22;4732;49.340;10.886;2023-04-24T09:34:25;13.00;99.90
9385;DHT22;4732;49.340;10.886;2023-04-24T09:36:51;13.30;99.90
9385;DHT22;4732;49.340;10.886;2023-04-24T09:39:17;13.40;99.90
9385;DHT22;4732;49.340;10.886;2023-04-24T09:42:03;13.70;99.90
9385;DHT22;4732;49.340;10.886;2023-04-24T09:44:29;13.70;99.90
9385;DHT22;4732;49.340;10.886;2023-04-24T09:46:59;13.60;99.90
9385;DHT22;4732;49.340;10.886;2023-04-24T09:49:28;13.40;99.90
9385;DHT22;4732;49.340;10.886;2023-04-24T09:52:08;13.20;99.90
9385;DHT22;4732;49.340;10.886;2023-04-24T09:54:34;13.30;99.90
9385;DHT22;4732;49.340;10.886;2023-04-24T09:57:02;13.20;99.90
9385;DHT22;4732;49.340;10.886;2023-04-24T09:59:28;13.10;99.90
9385;DHT22;4732;49.340;10.886;2023-04-24T10:01:53;13.00;99.90
9385;DHT22;4732;49.340;10.886;2023-04-24T10:06:47;12.80;99.90
9385;DHT22;4732;49.340;10.886;2023-04-24T10:09:14;12.80;99.90
9385;DHT22;4732;49.340;10.886;2023-04-24T10:11:43;12.80;99.90
9385;DHT22;4732;49.340;10.886;2023-04-24T10:14:15;13.00;99.90
9385;DHT22;4732;49.340;10.886;2023-04-24T10:16:42;13.10;99.90
9385;DHT22;4732;49.340;10.886;2023-04-24T10:19:08;13.10;99.90
9385;DHT22;4732;49.340;10.886;2023-04-24T10:21:34;13.20;99.90
9385;DHT22;4732;49.340;10.886;2023-04-24T10:24:01;13.50;99.90
9385;DHT22;4732;49.340;10.886;2023-04-24T10:26:29;13.70;99.90
9385;DHT22;4732;49.340;10.886;2023-04-24T10:28:57;13.70;99.90
9385;DHT22;4732;49.340;10.886;2023-04-24T10:31:23;13.60;99.90
9385;DHT22;4732;49.340;10.886;2023-04-24T10:33:50;13.70;99.90
9385;DHT22;4732;49.340;10.886;2023-04-24T10:36:17;13.80;99.90
9385;DHT22;4732;49.340;10.886;2023-04-24T10:38:45;13.90;99.90
9385;DHT22;4732;49.340;10.886;2023-04-24T10:41:12;13.70;99.90
9385;DHT22;4732;49.340;10.886;2023-04-24T10:43:42;13.50;99.90
9385;DHT22;4732;49.340;10.886;2023-04-24T10:46:08;13.60;99.90
9385;DHT22;4732;49.340;10.886;2023-04-24T10:48:36;13.50;99.90
9385;DHT22;4732;49.340;10.886;2023-04-24T10:51:11;13.10;99.90
9385;DHT22;4732;49.340;10.886;2023-04-24T10:53:37;12.80;99.90
9385;DHT22;4732;49.340;10.886;2023-04-24T10:56:06;12.60;99.90
9385;DHT22;4732;49.340;10.886;2023-04-24T10:58:42;12.30;99.90
9385;DHT22;4732;49.340;10.886;2023-04-24T11:01:31;12.20;99.90
9385;DHT22;4732;49.340;10.886;2023-04-24T11:03:59;12.10;99.90
9385;DHT22;4732;49.340;10.886;2023-04-24T11:06:36;12.10;99.90
9385;DHT22;4732;49.340;10.886;2023-04-24T11:09:09;12.20;99.90
9385;DHT22;4732;49.340;10.886;2023-04-24T11:11:36;12.20;99.90
9385;DHT22;4732;49.340;10.886;2023-04-24T11:14:04;12.40;99.90
9385;DHT22;4732;49.340;10.886;2023-04-24T11:16:45;12.50;99.90
9385;DHT22;4732;49.340;10.886;2023-04-24T11:22:00;13.00;99.90
9385;DHT22;4732;49.340;10.886;2023-04-24T11:24:31;13.50;99.90
9385;DHT22;4732;49.340;10.886;2023-04-24T11:32:40;14.20;99.90
9385;DHT22;4732;49.340;10.886;2023-04-24T11:35:13;14.10;99.90
9385;DHT22;4732;49.340;10.886;2023-04-24T11:37:41;14.10;99.90
9385;DHT22;4732;49.340;10.886;2023-04-24T11:40:12;13.90;99.90
9385;DHT22;4732;49.340;10.886;2023-04-24T11:42:45;13.70;99.90
9385;DHT22;4732;49.340;10.886;2023-04-24T11:45:20;13.60;99.90
9385;DHT22;4732;49.340;10.886;2023-04-24T11:47:46;13.40;99.90
9385;DHT22;4732;49.340;10.886;2023-04-24T11:50:14;13.20;99.90
9385;DHT22;4732;49.340;10.886;2023-04-24T11:52:43;13.80;99.90
9385;DHT22;4732;49.340;10.886;2023-04-24T11:57:51;14.50;99.90
9385;DHT22;4732;49.340;10.886;2023-04-24T12:00:20;14.30;99.90
9385;DHT22;4732;49.340;10.886;2023-04-24T12:05:23;15.10;99.90
9385;DHT22;4732;49.340;10.886;2023-04-24T12:07:49;15.10;99.90
9385;DHT22;4732;49.340;10.886;2023-04-24T12:10:22;14.90;99.90
9385;DHT22;4732;49.340;10.886;2023-04-24T12:12:48;14.60;99.90
9385;DHT22;4732;49.340;10.886;2023-04-24T12:15:16;14.40;99.90
9385;DHT22;4732;49.340;10.886;2023-04-24T12:17:42;14.10;99.90
9385;DHT22;4732;49.340;10.886;2023-04-24T12:20:08;13.90;99.90
9385;DHT22;4732;49.340;10.886;2023-04-24T12:25:17;13.70;99.90
9385;DHT22;4732;49.340;10.886;2023-04-24T12:27:44;13.50;99.90
9385;DHT22;4732;49.340;10.886;2023-04-24T12:30:13;13.30;99.90
9385;DHT22;4732;49.340;10.886;2023-04-24T12:32:43;13.30;99.90
9385;DHT22;4732;49.340;10.886;2023-04-24T12:35:10;13.40;99.90
9385;DHT22;4732;49.340;10.886;2023-04-24T12:37:35;13.50;99.90
9385;DHT22;4732;49.340;10.886;2023-04-24T12:40:08;13.70;99.90
9385;DHT22;4732;49.340;10.886;2023-04-24T12:42:41;14.00;99.90
9385;DHT22;4732;49.340;10.886;2023-04-24T12:45:07;14.10;99.90
9385;DHT22;4732;49.340;10.886;2023-04-24T12:47:34;14.10;99.90
9385;DHT22;4732;49.340;10.886;2023-04-24T12:50:00;14.20;99.90
9385;DHT22;4732;49.340;10.886;2023-04-24T12:52:28;14.60;99.90
9385;DHT22;4732;49.340;10.886;2023-04-24T12:54:54;14.60;99.90
9385;DHT22;4732;49.340;10.886;2023-04-24T12:57:21;14.60;99.90
9385;DHT22;4732;49.340;10.886;2023-04-24T12:59:46;14.40;99.90
9385;DHT22;4732;49.340;10.886;2023-04-24T13:02:12;14.40;99.90
9385;DHT22;4732;49.340;10.886;2023-04-24T13:04:38;14.30;99.90
9385;DHT22;4732;49.340;10.886;2023-04-24T13:07:04;14.30;99.90
9385;DHT22;4732;49.340;10.886;2023-04-24T13:09:30;14.10;99.90
9385;DHT22;4732;49.340;10.886;2023-04-24T13:11:56;14.00;99.90
9385;DHT22;4732;49.340;10.886;2023-04-24T13:14:22;14.00;99.90
9385;DHT22;4732;49.340;10.886;2023-04-24T13:16:48;13.80;99.90
9385;DHT22;4732;49.340;10.886;2023-04-24T13:19:13;13.80;99.90
9385;DHT22;4732;49.340;10.886;2023-04-24T13:21:39;13.70;99.90
9385;DHT22;4732;49.340;10.886;2023-04-24T13:24:04;13.80;99.90
9385;DHT22;4732;49.340;10.886;2023-04-24T13:26:31;13.80;99.90
9385;DHT22;4732;49.340;10.886;2023-04-24T13:28:56;13.70;99.90
9385;DHT22;4732;49.340;10.886;2023-04-24T13:31:22;13.60;99.90
9385;DHT22;4732;49.340;10.886;2023-04-24T13:33:48;13.50;99.90
9385;DHT22;4732;49.340;10.886;2023-04-24T13:36:13;13.30;99.90
9385;DHT22;4732;49.340;10.886;2023-04-24T13:38:39;13.00;99.90
9385;DHT22;4732;49.340;10.886;2023-04-24T13:41:05;12.80;99.90
9385;DHT22;4732;49.340;10.886;2023-04-24T13:43:30;12.60;99.90
9385;DHT22;4732;49.340;10.886;2023-04-24T13:45:55;12.60;99.90
9385;DHT22;4732;49.340;10.886;2023-04-24T13:48:21;12.70;99.90
9385;DHT22;4732;49.340;10.886;2023-04-24T13:50:47;12.60;99.90
9385;DHT22;4732;49.340;10.886;2023-04-24T13:53:14;12.60;99.90
9385;DHT22;4732;49.340;10.886;2023-04-24T13:55:40;12.70;99.90
9385;DHT22;4732;49.340;10.886;2023-04-24T13:58:06;13.00;99.90
9385;DHT22;4732;49.340;10.886;2023-04-24T14:00:31;13.30;99.90
9385;DHT22;4732;49.340;10.886;2023-04-24T14:02:57;14.00;99.90
9385;DHT22;4732;49.340;10.886;2023-04-24T14:05:22;14.60;99.90
9385;DHT22;4732;49.340;10.886;2023-04-24T14:07:48;14.40;99.90
9385;DHT22;4732;49.340;10.886;2023-04-24T14:10:14;14.30;99.90
9385;DHT22;4732;49.340;10.886;2023-04-24T14:12:39;14.10;99.90
9385;DHT22;4732;49.340;10.886;2023-04-24T14:15:05;13.30;99.90
9385;DHT22;4732;49.340;10.886;2023-04-24T14:17:31;13.00;99.90
9385;DHT22;4732;49.340;10.886;2023-04-24T14:19:57;12.90;99.90
9385;DHT22;4732;49.340;10.886;2023-04-24T14:22:25;12.60;99.90
9385;DHT22;4732;49.340;10.886;2023-04-24T14:24:50;12.50;99.90
9385;DHT22;4732;49.340;10.886;2023-04-24T14:27:16;12.50;99.90
9385;DHT22;4732;49.340;10.886;2023-04-24T14:29:41;12.40;99.90
9385;DHT22;4732;49.340;10.886;2023-04-24T14:32:07;12.20;99.90
9385;DHT22;4732;49.340;10.886;2023-04-24T14:34:34;12.20;99.90
9385;DHT22;4732;49.340;10.886;2023-04-24T14:36:59;11.80;99.90
9385;DHT22;4732;49.340;10.886;2023-04-24T14:39:25;11.40;99.90
9385;DHT22;4732;49.340;10.886;2023-04-24T14:41:50;11.30;99.90
9385;DHT22;4732;49.340;10.886;2023-04-24T14:44:16;10.90;99.90
9385;DHT22;4732;49.340;10.886;2023-04-24T14:46:42;11.00;99.90
9385;DHT22;4732;49.340;10.886;2023-04-24T14:49:08;11.20;99.90
9385;DHT22;4732;49.340;10.886;2023-04-24T14:51:36;11.60;99.90
9385;DHT22;4732;49.340;10.886;2023-04-24T14:54:01;11.80;99.90
9385;DHT22;4732;49.340;10.886;2023-04-24T14:56:27;11.80;99.90
9385;DHT22;4732;49.340;10.886;2023-04-24T14:58:52;11.90;99.90
9385;DHT22;4732;49.340;10.886;2023-04-24T15:01:18;11.90;99.90
9385;DHT22;4732;49.340;10.886;2023-04-24T15:03:44;11.90;99.90
9385;DHT22;4732;49.340;10.886;2023-04-24T15:06:09;12.10;99.90
9385;DHT22;4732;49.340;10.886;2023-04-24T15:08:35;12.30;99.90
9385;DHT22;4732;49.340;10.886;2023-04-24T15:11:01;12.20;99.90
9385;DHT22;4732;49.340;10.886;2023-04-24T15:13:26;12.30;99.90
9385;DHT22;4732;49.340;10.886;2023-04-24T15:15:52;12.70;99.90
9385;DHT22;4732;49.340;10.886;2023-04-24T15:18:17;12.90;99.90
9385;DHT22;4732;49.340;10.886;2023-04-24T15:20:43;13.10;99.90
9385;DHT22;4732;49.340;10.886;2023-04-24T15:23:09;13.00;99.90
9385;DHT22;4732;49.340;10.886;2023-04-24T15:25:35;13.40;99.90
9385;DHT22;4732;49.340;10.886;2023-04-24T15:28:00;13.60;99.90
9385;DHT22;4732;49.340;10.886;2023-04-24T15:30:26;13.60;99.90
9385;DHT22;4732;49.340;10.886;2023-04-24T15:32:52;13.30;99.90
9385;DHT22;4732;49.340;10.886;2023-04-24T15:35:18;13.00;99.90
9385;DHT22;4732;49.340;10.886;2023-04-24T15:37:43;13.10;99.90
9385;DHT22;4732;49.340;10.886;2023-04-24T15:40:10;12.90;99.90
9385;DHT22;4732;49.340;10.886;2023-04-24T15:42:38;12.70;99.90
9385;DHT22;4732;49.340;10.886;2023-04-24T15:45:04;12.60;99.90
9385;DHT22;4732;49.340;10.886;2023-04-24T15:47:30;12.40;99.90
9385;DHT22;4732;49.340;10.886;2023-04-24T15:49:57;12.40;99.90
9385;DHT22;4732;49.340;10.886;2023-04-24T15:52:22;12.40;99.90
9385;DHT22;4732;49.340;10.886;2023-04-24T15:54:48;12.30;99.90
9385;DHT22;4732;49.340;10.886;2023-04-24T15:57:14;12.30;99.90
9385;DHT22;4732;49.340;10.886;2023-04-24T15:59:40;12.20;99.90
9385;DHT22;4732;49.340;10.886;2023-04-24T16:02:07;12.20;99.90
9385;DHT22;4732;49.340;10.886;2023-04-24T16:04:33;12.20;99.90
9385;DHT22;4732;49.340;10.886;2023-04-24T16:07:00;12.20;99.90
9385;DHT22;4732;49.340;10.886;2023-04-24T16:09:25;12.20;99.90
9385;DHT22;4732;49.340;10.886;2023-04-24T16:11:51;12.20;99.90
9385;DHT22;4732;49.340;10.886;2023-04-24T16:14:16;12.20;99.90
9385;DHT22;4732;49.340;10.886;2023-04-24T16:16:42;12.10;99.90
9385;DHT22;4732;49.340;10.886;2023-04-24T16:19:08;12.00;99.90
9385;DHT22;4732;49.340;10.886;2023-04-24T16:21:33;11.80;99.90
9385;DHT22;4732;49.340;10.886;2023-04-24T16:23:59;11.70;99.90
9385;DHT22;4732;49.340;10.886;2023-04-24T16:26:25;11.70;99.90
9385;DHT22;4732;49.340;10.886;2023-04-24T16:28:50;11.60;99.90
9385;DHT22;4732;49.340;10.886;2023-04-24T16:31:16;11.60;99.90
9385;DHT22;4732;49.340;10.886;2023-04-24T16:33:42;11.70;99.90
9385;DHT22;4732;49.340;10.886;2023-04-24T16:36:07;11.70;99.90
9385;DHT22;4732;49.340;10.886;2023-04-24T16:38:34;11.90;99.90
9385;DHT22;4732;49.340;10.886;2023-04-24T16:40:59;12.00;99.90
9385;DHT22;4732;49.340;10.886;2023-04-24T16:43:25;12.10;99.90
9385;DHT22;4732;49.340;10.886;2023-04-24T16:45:52;12.10;99.90
9385;DHT22;4732;49.340;10.886;2023-04-24T16:48:18;12.00;99.90
9385;DHT22;4732;49.340;10.886;2023-04-24T16:50:43;12.00;99.90
9385;DHT22;4732;49.340;10.886;2023-04-24T16:53:10;12.00;99.90
9385;DHT22;4732;49.340;10.886;2023-04-24T16:55:36;11.90;99.90
9385;DHT22;4732;49.340;10.886;2023-04-24T16:58:02;11.60;99.90
9385;DHT22;4732;49.340;10.886;2023-04-24T17:00:28;11.60;99.90
9385;DHT22;4732;49.340;10.886;2023-04-24T17:02:53;11.50;99.90
9385;DHT22;4732;49.340;10.886;2023-04-24T17:05:19;11.40;99.90
9385;DHT22;4732;49.340;10.886;2023-04-24T17:07:48;11.20;99.90
9385;DHT22;4732;49.340;10.886;2023-04-24T17:10:13;11.10;99.90
9385;DHT22;4732;49.340;10.886;2023-04-24T17:12:39;11.10;99.90
9385;DHT22;4732;49.340;10.886;2023-04-24T17:15:05;11.10;99.90
9385;DHT22;4732;49.340;10.886;2023-04-24T17:17:30;11.00;99.90
9385;DHT22;4732;49.340;10.886;2023-04-24T17:19:56;11.00;99.90
9385;DHT22;4732;49.340;10.886;2023-04-24T17:22:21;11.00;99.90
9385;DHT22;4732;49.340;10.886;2023-04-24T17:24:47;11.00;99.90
9385;DHT22;4732;49.340;10.886;2023-04-24T17:27:12;11.00;99.90
9385;DHT22;4732;49.340;10.886;2023-04-24T17:29:39;11.00;99.90
9385;DHT22;4732;49.340;10.886;2023-04-24T17:32:04;11.00;99.90
9385;DHT22;4732;49.340;10.886;2023-04-24T17:34:30;11.00;99.90
9385;DHT22;4732;49.340;10.886;2023-04-24T17:36:55;10.80;99.90
9385;DHT22;4732;49.340;10.886;2023-04-24T17:39:21;10.80;99.90
9385;DHT22;4732;49.340;10.886;2023-04-24T17:41:46;10.70;99.90
9385;DHT22;4732;49.340;10.886;2023-04-24T17:44:12;10.60;99.90
9385;DHT22;4732;49.340;10.886;2023-04-24T17:49:03;10.10;99.90
9385;DHT22;4732;49.340;10.886;2023-04-24T17:51:29;10.00;99.90
9385;DHT22;4732;49.340;10.886;2023-04-24T17:53:54;9.90;99.90
9385;DHT22;4732;49.340;10.886;2023-04-24T17:56:20;10.00;99.90
9385;DHT22;4732;49.340;10.886;2023-04-24T17:58:46;10.10;99.90
9385;DHT22;4732;49.340;10.886;2023-04-24T18:01:11;9.40;99.90
9385;DHT22;4732;49.340;10.886;2023-04-24T18:03:37;9.80;99.90
9385;DHT22;4732;49.340;10.886;2023-04-24T18:06:04;9.90;99.90
9385;DHT22;4732;49.340;10.886;2023-04-24T18:10:57;9.80;99.90
9385;DHT22;4732;49.340;10.886;2023-04-24T18:13:22;9.00;99.90
9385;DHT22;4732;49.340;10.886;2023-04-24T18:15:48;9.80;99.90
9385;DHT22;4732;49.340;10.886;2023-04-24T18:20:39;9.90;99.90
9385;DHT22;4732;49.340;10.886;2023-04-24T18:23:05;9.90;99.90
9385;DHT22;4732;49.340;10.886;2023-04-24T18:25:30;9.90;99.90
9385;DHT22;4732;49.340;10.886;2023-04-24T18:27:56;9.90;99.90
9385;DHT22;4732;49.340;10.886;2023-04-24T18:30:22;9.70;99.90
9385;DHT22;4732;49.340;10.886;2023-04-24T18:32:49;9.70;99.90
9385;DHT22;4732;49.340;10.886;2023-04-24T18:35:15;9.60;99.90
9385;DHT22;4732;49.340;10.886;2023-04-24T18:37:41;9.60;99.90
9385;DHT22;4732;49.340;10.886;2023-04-24T18:40:08;9.40;99.90
9385;DHT22;4732;49.340;10.886;2023-04-24T18:42:34;9.60;99.90
9385;DHT22;4732;49.340;10.886;2023-04-24T18:44:59;9.50;99.90
9385;DHT22;4732;49.340;10.886;2023-04-24T18:47:27;9.50;99.90
9385;DHT22;4732;49.340;10.886;2023-04-24T18:49:52;9.40;99.90
9385;DHT22;4732;49.340;10.886;2023-04-24T18:52:18;9.40;99.90
9385;DHT22;4732;49.340;10.886;2023-04-24T18:54:44;9.20;99.90
9385;DHT22;4732;49.340;10.886;2023-04-24T18:57:10;9.30;99.90
9385;DHT22;4732;49.340;10.886;2023-04-24T18:59:35;9.30;99.90
9385;DHT22;4732;49.340;10.886;2023-04-24T19:04:28;9.10;99.90
9385;DHT22;4732;49.340;10.886;2023-04-24T19:06:53;9.20;99.90
9385;DHT22;4732;49.340;10.886;2023-04-24T19:09:19;9.10;99.90
9385;DHT22;4732;49.340;10.886;2023-04-24T19:11:45;9.10;99.90